KFSO

Franklin County State Airport

Highgate, Vermont, USA
METAR KFSO 172115Z AUTO 00000KT 10SM CLR M15/M17 A3033 RMK AO2 T11511171
Observed Flight Rules
Dec-17 @ 21:15 UTC (18 minutes ago) Visual Flight Rules
Wind Visibility Clouds
Calm 10 miles
  • Clear skies
Temperatures Readings
Current -15°C / 5°F
Dewpoint -17°C / 1°F
Humidity 85%
Altimeter 30.33" Hg
Pressure 1027 hPa
Elevation 70
METAR KFSO 172115Z AUTO 00000KT 10SM CLR M15/M17 A3033 RMK AO2 T11511171
Observed Flight Rules
Dec-17 @ 21:15 UTC
(18 minutes ago)
VFR
Wind Visibility
Calm 10 miles
Clouds
  • Clear skies
Temperature Dewpoint
-15°C / 5°F -17°C / 1°F
Humidity Altimeter Pressure
85% 30.33" Hg 1027 hPa